sensor_id;sensor_type;location;lat;lon;timestamp;temperature;humidity
16958;DHT22;8595;52.542;11.974;2023-03-01T00:02:21;0.30;99.90
16958;DHT22;8595;52.542;11.974;2023-03-01T00:04:49;0.10;99.90
16958;DHT22;8595;52.542;11.974;2023-03-01T00:07:26;0.10;99.90
16958;DHT22;8595;52.542;11.974;2023-03-01T00:09:53;-0.10;99.90
16958;DHT22;8595;52.542;11.974;2023-03-01T00:12:20;-0.10;99.90
16958;DHT22;8595;52.542;11.974;2023-03-01T00:14:46;-0.10;99.90
16958;DHT22;8595;52.542;11.974;2023-03-01T00:17:13;0.00;99.90
16958;DHT22;8595;52.542;11.974;2023-03-01T00:19:40;0.00;99.90
16958;DHT22;8595;52.542;11.974;2023-03-01T00:22:08;0.10;99.90
16958;DHT22;8595;52.542;11.974;2023-03-01T00:24:37;0.10;99.90
16958;DHT22;8595;52.542;11.974;2023-03-01T00:27:08;0.10;99.90
16958;DHT22;8595;52.542;11.974;2023-03-01T00:29:35;0.10;99.90
16958;DHT22;8595;52.542;11.974;2023-03-01T00:32:02;0.00;99.90
16958;DHT22;8595;52.542;11.974;2023-03-01T00:34:29;-0.10;99.90
16958;DHT22;8595;52.542;11.974;2023-03-01T00:36:56;-0.10;99.90
16958;DHT22;8595;52.542;11.974;2023-03-01T00:39:31;-0.40;99.90
16958;DHT22;8595;52.542;11.974;2023-03-01T00:41:58;-0.60;99.90
16958;DHT22;8595;52.542;11.974;2023-03-01T00:44:25;-0.50;99.90
16958;DHT22;8595;52.542;11.974;2023-03-01T00:46:56;-0.40;99.90
16958;DHT22;8595;52.542;11.974;2023-03-01T00:49:23;-0.30;99.90
16958;DHT22;8595;52.542;11.974;2023-03-01T00:52:07;-0.30;99.90
16958;DHT22;8595;52.542;11.974;2023-03-01T00:54:36;-0.50;99.90
16958;DHT22;8595;52.542;11.974;2023-03-01T00:57:03;-0.70;99.90
16958;DHT22;8595;52.542;11.974;2023-03-01T00:59:29;-0.80;99.90
16958;DHT22;8595;52.542;11.974;2023-03-01T01:01:56;-0.80;99.90
16958;DHT22;8595;52.542;11.974;2023-03-01T01:04:25;-0.70;99.90
16958;DHT22;8595;52.542;11.974;2023-03-01T01:06:52;-0.60;99.90
16958;DHT22;8595;52.542;11.974;2023-03-01T01:09:19;-0.60;99.90
16958;DHT22;8595;52.542;11.974;2023-03-01T01:11:48;-0.60;99.90
16958;DHT22;8595;52.542;11.974;2023-03-01T01:14:19;-0.40;99.90
16958;DHT22;8595;52.542;11.974;2023-03-01T01:16:46;-0.30;99.90
16958;DHT22;8595;52.542;11.974;2023-03-01T01:19:13;-0.30;99.90
16958;DHT22;8595;52.542;11.974;2023-03-01T01:21:44;-0.30;99.90
16958;DHT22;8595;52.542;11.974;2023-03-01T01:24:11;-0.40;99.90
16958;DHT22;8595;52.542;11.974;2023-03-01T01:26:38;-0.50;99.90
16958;DHT22;8595;52.542;11.974;2023-03-01T01:29:07;-0.70;99.90
16958;DHT22;8595;52.542;11.974;2023-03-01T01:31:36;-0.90;99.90
16958;DHT22;8595;52.542;11.974;2023-03-01T01:34:06;-1.00;99.90
16958;DHT22;8595;52.542;11.974;2023-03-01T01:36:34;-1.10;99.90
16958;DHT22;8595;52.542;11.974;2023-03-01T01:39:01;-1.00;99.90
16958;DHT22;8595;52.542;11.974;2023-03-01T01:41:29;-1.10;99.90
16958;DHT22;8595;52.542;11.974;2023-03-01T01:44:18;-1.10;99.90
16958;DHT22;8595;52.542;11.974;2023-03-01T01:46:48;-1.10;99.90
16958;DHT22;8595;52.542;11.974;2023-03-01T01:49:24;-1.10;99.90
16958;DHT22;8595;52.542;11.974;2023-03-01T01:52:02;-1.10;99.90
16958;DHT22;8595;52.542;11.974;2023-03-01T01:54:37;-1.20;99.90
16958;DHT22;8595;52.542;11.974;2023-03-01T01:57:11;-1.30;99.90
16958;DHT22;8595;52.542;11.974;2023-03-01T01:59:42;-1.30;99.90
16958;DHT22;8595;52.542;11.974;2023-03-01T02:02:12;-1.20;99.90
16958;DHT22;8595;52.542;11.974;2023-03-01T02:04:40;-1.30;99.90
16958;DHT22;8595;52.542;11.974;2023-03-01T02:07:13;-1.30;99.90
16958;DHT22;8595;52.542;11.974;2023-03-01T02:09:42;-1.30;99.90
16958;DHT22;8595;52.542;11.974;2023-03-01T02:12:11;-1.40;99.90
16958;DHT22;8595;52.542;11.974;2023-03-01T02:14:40;-1.40;99.90
16958;DHT22;8595;52.542;11.974;2023-03-01T02:17:07;-1.40;99.90
16958;DHT22;8595;52.542;11.974;2023-03-01T02:19:47;-1.40;99.90
16958;DHT22;8595;52.542;11.974;2023-03-01T02:22:24;-1.40;99.90
16958;DHT22;8595;52.542;11.974;2023-03-01T02:25:00;-1.30;99.90
16958;DHT22;8595;52.542;11.974;2023-03-01T02:27:35;-1.20;99.90
16958;DHT22;8595;52.542;11.974;2023-03-01T02:30:06;-1.20;99.90
16958;DHT22;8595;52.542;11.974;2023-03-01T02:32:34;-1.20;99.90
16958;DHT22;8595;52.542;11.974;2023-03-01T02:35:05;-1.20;99.90
16958;DHT22;8595;52.542;11.974;2023-03-01T02:37:32;-1.20;99.90
16958;DHT22;8595;52.542;11.974;2023-03-01T02:40:05;-1.10;99.90
16958;DHT22;8595;52.542;11.974;2023-03-01T02:42:43;-1.20;99.90
16958;DHT22;8595;52.542;11.974;2023-03-01T02:45:14;-1.20;99.90
16958;DHT22;8595;52.542;11.974;2023-03-01T02:47:47;-1.20;99.90
16958;DHT22;8595;52.542;11.974;2023-03-01T02:50:22;-1.20;99.90
16958;DHT22;8595;52.542;11.974;2023-03-01T02:52:57;-1.20;99.90
16958;DHT22;8595;52.542;11.974;2023-03-01T02:55:29;-1.30;99.90
16958;DHT22;8595;52.542;11.974;2023-03-01T02:57:56;-1.20;99.90
16958;DHT22;8595;52.542;11.974;2023-03-01T03:00:30;-1.20;99.90
16958;DHT22;8595;52.542;11.974;2023-03-01T03:03:13;-1.10;99.90
16958;DHT22;8595;52.542;11.974;2023-03-01T03:05:40;-1.10;99.90
16958;DHT22;8595;52.542;11.974;2023-03-01T03:08:07;-1.00;99.90
16958;DHT22;8595;52.542;11.974;2023-03-01T03:10:36;-1.00;99.90
16958;DHT22;8595;52.542;11.974;2023-03-01T03:13:05;-0.90;99.90
16958;DHT22;8595;52.542;11.974;2023-03-01T03:15:37;-0.90;99.90
16958;DHT22;8595;52.542;11.974;2023-03-01T03:18:07;-0.80;99.90
16958;DHT22;8595;52.542;11.974;2023-03-01T03:20:34;-0.80;99.90
16958;DHT22;8595;52.542;11.974;2023-03-01T03:23:03;-0.80;99.90
16958;DHT22;8595;52.542;11.974;2023-03-01T03:25:30;-0.80;99.90
16958;DHT22;8595;52.542;11.974;2023-03-01T03:27:58;-1.00;99.90
16958;DHT22;8595;52.542;11.974;2023-03-01T03:30:26;-0.80;99.90
16958;DHT22;8595;52.542;11.974;2023-03-01T03:32:57;-0.90;99.90
16958;DHT22;8595;52.542;11.974;2023-03-01T03:35:27;-1.00;99.90
16958;DHT22;8595;52.542;11.974;2023-03-01T03:37:56;-1.00;99.90
16958;DHT22;8595;52.542;11.974;2023-03-01T03:40:42;-1.00;99.90
16958;DHT22;8595;52.542;11.974;2023-03-01T03:43:11;-1.10;99.90
16958;DHT22;8595;52.542;11.974;2023-03-01T03:45:39;-1.10;99.90
16958;DHT22;8595;52.542;11.974;2023-03-01T03:48:08;-1.20;99.90
16958;DHT22;8595;52.542;11.974;2023-03-01T03:50:47;-1.20;99.90
16958;DHT22;8595;52.542;11.974;2023-03-01T03:53:14;-1.20;99.90
16958;DHT22;8595;52.542;11.974;2023-03-01T03:55:41;-1.20;99.90
16958;DHT22;8595;52.542;11.974;2023-03-01T03:58:11;-1.30;99.90
16958;DHT22;8595;52.542;11.974;2023-03-01T04:00:40;-1.30;99.90
16958;DHT22;8595;52.542;11.974;2023-03-01T04:03:10;-1.30;99.90
16958;DHT22;8595;52.542;11.974;2023-03-01T04:05:38;-1.30;99.90
16958;DHT22;8595;52.542;11.974;2023-03-01T04:08:05;-1.30;99.90
16958;DHT22;8595;52.542;11.974;2023-03-01T04:10:34;-1.30;99.90
16958;DHT22;8595;52.542;11.974;2023-03-01T04:13:02;-1.30;99.90
16958;DHT22;8595;52.542;11.974;2023-03-01T04:15:31;-1.30;99.90
16958;DHT22;8595;52.542;11.974;2023-03-01T04:17:59;-1.30;99.90
16958;DHT22;8595;52.542;11.974;2023-03-01T04:20:28;-1.30;99.90
16958;DHT22;8595;52.542;11.974;2023-03-01T04:23:03;-1.20;99.90
16958;DHT22;8595;52.542;11.974;2023-03-01T04:25:42;-1.30;99.90
16958;DHT22;8595;52.542;11.974;2023-03-01T04:28:15;-1.30;99.90
16958;DHT22;8595;52.542;11.974;2023-03-01T04:30:42;-1.40;99.90
16958;DHT22;8595;52.542;11.974;2023-03-01T04:33:10;-1.40;99.90
16958;DHT22;8595;52.542;11.974;2023-03-01T04:35:39;-1.40;99.90
16958;DHT22;8595;52.542;11.974;2023-03-01T04:38:06;-1.40;99.90
16958;DHT22;8595;52.542;11.974;2023-03-01T04:40:34;-1.40;99.90
16958;DHT22;8595;52.542;11.974;2023-03-01T04:43:01;-1.40;99.90
16958;DHT22;8595;52.542;11.974;2023-03-01T04:45:29;-1.30;99.90
16958;DHT22;8595;52.542;11.974;2023-03-01T04:47:59;-1.40;99.90
16958;DHT22;8595;52.542;11.974;2023-03-01T04:50:27;-1.30;99.90
16958;DHT22;8595;52.542;11.974;2023-03-01T04:52:58;-1.40;99.90
16958;DHT22;8595;52.542;11.974;2023-03-01T04:55:25;-1.40;99.90
16958;DHT22;8595;52.542;11.974;2023-03-01T04:57:53;-1.40;99.90
16958;DHT22;8595;52.542;11.974;2023-03-01T05:00:21;-1.50;99.90
16958;DHT22;8595;52.542;11.974;2023-03-01T05:02:49;-1.60;99.90
16958;DHT22;8595;52.542;11.974;2023-03-01T05:05:26;-1.80;99.90
16958;DHT22;8595;52.542;11.974;2023-03-01T05:07:56;-1.90;99.90
16958;DHT22;8595;52.542;11.974;2023-03-01T05:10:25;-1.90;99.90
16958;DHT22;8595;52.542;11.974;2023-03-01T05:12:54;-2.00;99.90
16958;DHT22;8595;52.542;11.974;2023-03-01T05:15:22;-1.90;99.90
16958;DHT22;8595;52.542;11.974;2023-03-01T05:17:50;-2.00;99.90
16958;DHT22;8595;52.542;11.974;2023-03-01T05:20:17;-2.00;99.90
16958;DHT22;8595;52.542;11.974;2023-03-01T05:22:48;-2.10;99.90
16958;DHT22;8595;52.542;11.974;2023-03-01T05:25:15;-2.00;99.90
16958;DHT22;8595;52.542;11.974;2023-03-01T05:27:44;-2.00;99.90
16958;DHT22;8595;52.542;11.974;2023-03-01T05:30:11;-2.00;99.90
16958;DHT22;8595;52.542;11.974;2023-03-01T05:32:43;-2.00;99.90
16958;DHT22;8595;52.542;11.974;2023-03-01T05:35:11;-1.90;99.90
16958;DHT22;8595;52.542;11.974;2023-03-01T05:37:40;-2.00;99.90
16958;DHT22;8595;52.542;11.974;2023-03-01T05:40:09;-1.90;99.90
16958;DHT22;8595;52.542;11.974;2023-03-01T05:42:46;-1.90;99.90
16958;DHT22;8595;52.542;11.974;2023-03-01T05:45:14;-1.90;99.90
16958;DHT22;8595;52.542;11.974;2023-03-01T05:47:42;-1.90;99.90
16958;DHT22;8595;52.542;11.974;2023-03-01T05:50:14;-1.80;99.90
16958;DHT22;8595;52.542;11.974;2023-03-01T05:52:45;-1.90;99.90
16958;DHT22;8595;52.542;11.974;2023-03-01T05:55:13;-1.90;99.90
16958;DHT22;8595;52.542;11.974;2023-03-01T05:57:41;-1.80;99.90
16958;DHT22;8595;52.542;11.974;2023-03-01T06:00:11;-1.80;99.90
16958;DHT22;8595;52.542;11.974;2023-03-01T06:02:41;-1.70;99.90
16958;DHT22;8595;52.542;11.974;2023-03-01T06:05:10;-1.70;99.90
16958;DHT22;8595;52.542;11.974;2023-03-01T06:07:37;-1.70;99.90
16958;DHT22;8595;52.542;11.974;2023-03-01T06:10:06;-1.80;99.90
16958;DHT22;8595;52.542;11.974;2023-03-01T06:12:33;-1.80;99.90
16958;DHT22;8595;52.542;11.974;2023-03-01T06:15:00;-1.70;99.90
16958;DHT22;8595;52.542;11.974;2023-03-01T06:17:33;-1.70;99.90
16958;DHT22;8595;52.542;11.974;2023-03-01T06:20:03;-1.70;99.90
16958;DHT22;8595;52.542;11.974;2023-03-01T06:22:30;-1.70;99.90
16958;DHT22;8595;52.542;11.974;2023-03-01T06:24:57;-1.80;99.90
16958;DHT22;8595;52.542;11.974;2023-03-01T06:27:24;-1.80;99.90
16958;DHT22;8595;52.542;11.974;2023-03-01T06:29:55;-1.80;99.90
16958;DHT22;8595;52.542;11.974;2023-03-01T06:32:22;-1.90;99.90
16958;DHT22;8595;52.542;11.974;2023-03-01T06:34:50;-2.00;99.90
16958;DHT22;8595;52.542;11.974;2023-03-01T06:37:17;-2.00;99.90
16958;DHT22;8595;52.542;11.974;2023-03-01T06:39:46;-2.00;99.90
16958;DHT22;8595;52.542;11.974;2023-03-01T06:42:15;-2.00;99.90
16958;DHT22;8595;52.542;11.974;2023-03-01T06:44:44;-2.00;99.90
16958;DHT22;8595;52.542;11.974;2023-03-01T06:47:12;-1.90;99.90
16958;DHT22;8595;52.542;11.974;2023-03-01T06:49:39;-1.80;99.90
16958;DHT22;8595;52.542;11.974;2023-03-01T06:52:07;-1.90;99.90
16958;DHT22;8595;52.542;11.974;2023-03-01T06:54:34;-1.80;99.90
16958;DHT22;8595;52.542;11.974;2023-03-01T06:57:01;-1.70;99.90
16958;DHT22;8595;52.542;11.974;2023-03-01T06:59:28;-1.70;99.90
16958;DHT22;8595;52.542;11.974;2023-03-01T07:01:54;-1.60;99.90
16958;DHT22;8595;52.542;11.974;2023-03-01T07:04:21;-1.50;99.90
16958;DHT22;8595;52.542;11.974;2023-03-01T07:06:48;-1.40;99.90
16958;DHT22;8595;52.542;11.974;2023-03-01T07:09:22;-1.40;99.90
16958;DHT22;8595;52.542;11.974;2023-03-01T07:11:50;-1.30;99.90
16958;DHT22;8595;52.542;11.974;2023-03-01T07:14:21;-1.20;99.90
16958;DHT22;8595;52.542;11.974;2023-03-01T07:16:50;-1.10;99.90
16958;DHT22;8595;52.542;11.974;2023-03-01T07:19:23;-1.10;99.90
16958;DHT22;8595;52.542;11.974;2023-03-01T07:21:53;-0.90;99.90
16958;DHT22;8595;52.542;11.974;2023-03-01T07:24:22;-1.00;99.90
16958;DHT22;8595;52.542;11.974;2023-03-01T07:26:53;-0.40;99.90
16958;DHT22;8595;52.542;11.974;2023-03-01T07:29:22;0.90;99.90
16958;DHT22;8595;52.542;11.974;2023-03-01T07:31:57;2.10;99.90
16958;DHT22;8595;52.542;11.974;2023-03-01T07:34:24;2.80;99.90
16958;DHT22;8595;52.542;11.974;2023-03-01T07:36:55;3.10;99.90
16958;DHT22;8595;52.542;11.974;2023-03-01T07:39:30;3.30;99.90
16958;DHT22;8595;52.542;11.974;2023-03-01T07:42:00;3.80;99.90
16958;DHT22;8595;52.542;11.974;2023-03-01T07:44:27;4.30;99.90
16958;DHT22;8595;52.542;11.974;2023-03-01T07:46:54;5.00;99.90
16958;DHT22;8595;52.542;11.974;2023-03-01T07:49:23;5.20;99.90
16958;DHT22;8595;52.542;11.974;2023-03-01T07:51:54;5.50;99.90
16958;DHT22;8595;52.542;11.974;2023-03-01T07:54:23;6.10;99.90
16958;DHT22;8595;52.542;11.974;2023-03-01T07:56:51;6.70;99.90
16958;DHT22;8595;52.542;11.974;2023-03-01T07:59:18;7.40;99.90
16958;DHT22;8595;52.542;11.974;2023-03-01T08:01:44;7.70;99.90
16958;DHT22;8595;52.542;11.974;2023-03-01T08:04:12;7.90;99.90
16958;DHT22;8595;52.542;11.974;2023-03-01T08:06:38;8.20;99.90
16958;DHT22;8595;52.542;11.974;2023-03-01T08:09:05;8.30;99.90
16958;DHT22;8595;52.542;11.974;2023-03-01T08:11:34;8.70;99.90
16958;DHT22;8595;52.542;11.974;2023-03-01T08:14:01;9.00;99.90
16958;DHT22;8595;52.542;11.974;2023-03-01T08:16:28;9.20;99.90
16958;DHT22;8595;52.542;11.974;2023-03-01T08:18:55;9.40;99.90
16958;DHT22;8595;52.542;11.974;2023-03-01T08:21:27;9.60;99.90
16958;DHT22;8595;52.542;11.974;2023-03-01T08:23:57;9.90;99.90
16958;DHT22;8595;52.542;11.974;2023-03-01T08:26:44;10.30;99.90
16958;DHT22;8595;52.542;11.974;2023-03-01T08:29:14;10.60;99.90
16958;DHT22;8595;52.542;11.974;2023-03-01T08:31:41;10.10;99.90
16958;DHT22;8595;52.542;11.974;2023-03-01T08:34:10;9.60;99.90
16958;DHT22;8595;52.542;11.974;2023-03-01T08:36:39;9.30;99.90
16958;DHT22;8595;52.542;11.974;2023-03-01T08:39:07;9.10;99.90
16958;DHT22;8595;52.542;11.974;2023-03-01T08:41:34;9.20;99.90
16958;DHT22;8595;52.542;11.974;2023-03-01T08:44:04;9.50;99.90
16958;DHT22;8595;52.542;11.974;2023-03-01T08:46:33;10.00;99.90
16958;DHT22;8595;52.542;11.974;2023-03-01T08:49:03;10.30;99.90
16958;DHT22;8595;52.542;11.974;2023-03-01T08:51:35;11.00;99.90
16958;DHT22;8595;52.542;11.974;2023-03-01T08:54:06;11.40;99.90
16958;DHT22;8595;52.542;11.974;2023-03-01T08:56:34;11.50;99.90
16958;DHT22;8595;52.542;11.974;2023-03-01T08:59:01;11.50;99.90
16958;DHT22;8595;52.542;11.974;2023-03-01T09:01:39;11.60;99.90
16958;DHT22;8595;52.542;11.974;2023-03-01T09:04:12;11.90;99.90
16958;DHT22;8595;52.542;11.974;2023-03-01T09:06:39;12.40;99.90
16958;DHT22;8595;52.542;11.974;2023-03-01T09:09:13;12.50;99.90
16958;DHT22;8595;52.542;11.974;2023-03-01T09:11:41;12.70;99.90
16958;DHT22;8595;52.542;11.974;2023-03-01T09:14:11;13.00;99.90
16958;DHT22;8595;52.542;11.974;2023-03-01T09:16:40;13.20;99.90
16958;DHT22;8595;52.542;11.974;2023-03-01T09:19:06;13.20;99.90
16958;DHT22;8595;52.542;11.974;2023-03-01T09:21:33;13.20;99.90
16958;DHT22;8595;52.542;11.974;2023-03-01T09:24:00;13.20;99.90
16958;DHT22;8595;52.542;11.974;2023-03-01T09:26:27;13.60;99.90
16958;DHT22;8595;52.542;11.974;2023-03-01T09:28:55;14.00;99.90
16958;DHT22;8595;52.542;11.974;2023-03-01T09:31:23;14.10;99.90
16958;DHT22;8595;52.542;11.974;2023-03-01T09:33:53;14.40;99.90
16958;DHT22;8595;52.542;11.974;2023-03-01T09:36:39;14.50;99.90
16958;DHT22;8595;52.542;11.974;2023-03-01T09:39:09;14.60;99.90
16958;DHT22;8595;52.542;11.974;2023-03-01T09:41:44;14.70;99.90
16958;DHT22;8595;52.542;11.974;2023-03-01T09:44:20;15.00;99.90
16958;DHT22;8595;52.542;11.974;2023-03-01T09:46:48;15.20;99.90
16958;DHT22;8595;52.542;11.974;2023-03-01T09:49:19;14.60;99.90
16958;DHT22;8595;52.542;11.974;2023-03-01T09:51:55;14.80;99.90
16958;DHT22;8595;52.542;11.974;2023-03-01T09:54:22;15.10;99.90
16958;DHT22;8595;52.542;11.974;2023-03-01T09:57:01;14.90;99.90
16958;DHT22;8595;52.542;11.974;2023-03-01T09:59:37;15.00;99.90
16958;DHT22;8595;52.542;11.974;2023-03-01T10:02:21;15.70;99.90
16958;DHT22;8595;52.542;11.974;2023-03-01T10:04:50;15.80;98.80
16958;DHT22;8595;52.542;11.974;2023-03-01T10:07:26;15.80;95.70
16958;DHT22;8595;52.542;11.974;2023-03-01T10:09:53;15.30;98.20
16958;DHT22;8595;52.542;11.974;2023-03-01T10:12:22;15.70;98.70
16958;DHT22;8595;52.542;11.974;2023-03-01T10:14:55;16.10;95.70
16958;DHT22;8595;52.542;11.974;2023-03-01T10:17:32;15.40;96.30
16958;DHT22;8595;52.542;11.974;2023-03-01T10:20:16;14.80;94.80
16958;DHT22;8595;52.542;11.974;2023-03-01T10:22:46;14.90;95.90
16958;DHT22;8595;52.542;11.974;2023-03-01T10:25:20;14.90;97.80
16958;DHT22;8595;52.542;11.974;2023-03-01T10:27:52;15.30;96.10
16958;DHT22;8595;52.542;11.974;2023-03-01T10:30:22;15.60;96.90
16958;DHT22;8595;52.542;11.974;2023-03-01T10:32:52;15.70;93.00
16958;DHT22;8595;52.542;11.974;2023-03-01T10:35:23;16.00;96.20
16958;DHT22;8595;52.542;11.974;2023-03-01T10:37:58;16.30;94.50
16958;DHT22;8595;52.542;11.974;2023-03-01T10:40:25;16.20;94.00
16958;DHT22;8595;52.542;11.974;2023-03-01T10:42:52;16.40;95.40
16958;DHT22;8595;52.542;11.974;2023-03-01T10:45:31;16.30;92.70
16958;DHT22;8595;52.542;11.974;2023-03-01T10:48:10;16.10;93.10
16958;DHT22;8595;52.542;11.974;2023-03-01T10:50:50;15.30;91.90
16958;DHT22;8595;52.542;11.974;2023-03-01T10:53:24;15.50;92.80
16958;DHT22;8595;52.542;11.974;2023-03-01T10:56:01;15.50;93.20
16958;DHT22;8595;52.542;11.974;2023-03-01T10:58:29;16.30;92.50
16958;DHT22;8595;52.542;11.974;2023-03-01T11:00:57;16.80;91.20
16958;DHT22;8595;52.542;11.974;2023-03-01T11:03:27;16.50;89.60
16958;DHT22;8595;52.542;11.974;2023-03-01T11:05:58;16.60;90.70
16958;DHT22;8595;52.542;11.974;2023-03-01T11:08:42;16.30;89.10
16958;DHT22;8595;52.542;11.974;2023-03-01T11:11:22;15.90;90.00
16958;DHT22;8595;52.542;11.974;2023-03-01T11:13:54;16.00;88.90
16958;DHT22;8595;52.542;11.974;2023-03-01T11:16:31;15.20;88.80
16958;DHT22;8595;52.542;11.974;2023-03-01T11:19:12;14.50;89.10
16958;DHT22;8595;52.542;11.974;2023-03-01T11:21:47;14.40;89.00
16958;DHT22;8595;52.542;11.974;2023-03-01T11:24:17;14.50;89.50
16958;DHT22;8595;52.542;11.974;2023-03-01T11:26:47;15.50;89.00
16958;DHT22;8595;52.542;11.974;2023-03-01T11:29:21;15.30;89.10
16958;DHT22;8595;52.542;11.974;2023-03-01T11:31:53;15.50;91.30
16958;DHT22;8595;52.542;11.974;2023-03-01T11:34:32;14.40;89.60
16958;DHT22;8595;52.542;11.974;2023-03-01T11:37:09;14.70;90.50
16958;DHT22;8595;52.542;11.974;2023-03-01T11:39:42;15.40;88.10
16958;DHT22;8595;52.542;11.974;2023-03-01T11:42:13;15.60;87.60
16958;DHT22;8595;52.542;11.974;2023-03-01T11:44:43;16.20;89.30
16958;DHT22;8595;52.542;11.974;2023-03-01T11:47:25;16.70;86.50
16958;DHT22;8595;52.542;11.974;2023-03-01T11:50:15;17.10;86.70
16958;DHT22;8595;52.542;11.974;2023-03-01T11:52:52;16.70;85.50
16958;DHT22;8595;52.542;11.974;2023-03-01T11:55:30;16.30;87.10
16958;DHT22;8595;52.542;11.974;2023-03-01T11:58:22;14.50;87.10
16958;DHT22;8595;52.542;11.974;2023-03-01T12:01:05;13.90;87.70
16958;DHT22;8595;52.542;11.974;2023-03-01T12:03:51;14.70;90.20
16958;DHT22;8595;52.542;11.974;2023-03-01T12:06:42;16.00;89.20
16958;DHT22;8595;52.542;11.974;2023-03-01T12:09:34;17.00;87.40
16958;DHT22;8595;52.542;11.974;2023-03-01T12:12:17;17.00;85.70
16958;DHT22;8595;52.542;11.974;2023-03-01T12:17:56;15.30;86.10
16958;DHT22;8595;52.542;11.974;2023-03-01T12:20:31;15.20;88.10
16958;DHT22;8595;52.542;11.974;2023-03-01T12:23:16;15.90;85.80
16958;DHT22;8595;52.542;11.974;2023-03-01T12:25:52;16.10;84.90
16958;DHT22;8595;52.542;11.974;2023-03-01T12:28:35;16.20;83.80
16958;DHT22;8595;52.542;11.974;2023-03-01T12:31:18;15.50;84.20
16958;DHT22;8595;52.542;11.974;2023-03-01T12:33:55;15.80;84.10
16958;DHT22;8595;52.542;11.974;2023-03-01T12:36:36;15.80;87.00
16958;DHT22;8595;52.542;11.974;2023-03-01T12:39:19;16.00;87.80
16958;DHT22;8595;52.542;11.974;2023-03-01T12:41:58;16.30;81.90
16958;DHT22;8595;52.542;11.974;2023-03-01T12:44:40;15.90;83.60
16958;DHT22;8595;52.542;11.974;2023-03-01T12:47:20;15.70;83.00
16958;DHT22;8595;52.542;11.974;2023-03-01T12:49:54;14.90;83.90
16958;DHT22;8595;52.542;11.974;2023-03-01T12:52:26;14.70;84.40
16958;DHT22;8595;52.542;11.974;2023-03-01T12:54:57;14.10;83.70
16958;DHT22;8595;52.542;11.974;2023-03-01T12:57:32;14.80;83.10
16958;DHT22;8595;52.542;11.974;2023-03-01T13:00:17;15.60;84.90
16958;DHT22;8595;52.542;11.974;2023-03-01T13:02:53;15.50;83.80
16958;DHT22;8595;52.542;11.974;2023-03-01T13:05:29;16.00;83.70
16958;DHT22;8595;52.542;11.974;2023-03-01T13:08:03;16.20;85.70
16958;DHT22;8595;52.542;11.974;2023-03-01T13:10:36;16.90;86.30
16958;DHT22;8595;52.542;11.974;2023-03-01T13:13:21;17.10;84.90
16958;DHT22;8595;52.542;11.974;2023-03-01T13:15:48;17.00;82.40
16958;DHT22;8595;52.542;11.974;2023-03-01T13:18:32;16.00;82.80
16958;DHT22;8595;52.542;11.974;2023-03-01T13:21:03;15.80;83.00
16958;DHT22;8595;52.542;11.974;2023-03-01T13:23:33;15.80;83.10
16958;DHT22;8595;52.542;11.974;2023-03-01T13:26:04;15.90;86.30
16958;DHT22;8595;52.542;11.974;2023-03-01T13:28:46;16.50;82.80
16958;DHT22;8595;52.542;11.974;2023-03-01T13:34:56;17.80;82.50
16958;DHT22;8595;52.542;11.974;2023-03-01T13:37:36;16.70;83.70
16958;DHT22;8595;52.542;11.974;2023-03-01T13:43:32;17.10;79.40
16958;DHT22;8595;52.542;11.974;2023-03-01T13:46:09;15.50;80.90
16958;DHT22;8595;52.542;11.974;2023-03-01T13:48:37;14.50;81.70
16958;DHT22;8595;52.542;11.974;2023-03-01T13:51:07;14.40;83.20
16958;DHT22;8595;52.542;11.974;2023-03-01T13:53:41;14.50;84.10
16958;DHT22;8595;52.542;11.974;2023-03-01T13:56:12;14.80;86.20
16958;DHT22;8595;52.542;11.974;2023-03-01T13:58:49;15.30;82.80
16958;DHT22;8595;52.542;11.974;2023-03-01T14:01:26;15.70;83.50
16958;DHT22;8595;52.542;11.974;2023-03-01T14:03:54;15.70;79.90
16958;DHT22;8595;52.542;11.974;2023-03-01T14:06:23;15.80;81.60
16958;DHT22;8595;52.542;11.974;2023-03-01T14:08:59;15.60;78.30
16958;DHT22;8595;52.542;11.974;2023-03-01T14:12:00;16.30;80.60
16958;DHT22;8595;52.542;11.974;2023-03-01T14:14:39;16.30;79.20
16958;DHT22;8595;52.542;11.974;2023-03-01T14:17:32;16.80;82.10
16958;DHT22;8595;52.542;11.974;2023-03-01T14:20:08;16.50;77.60
16958;DHT22;8595;52.542;11.974;2023-03-01T14:22:36;16.50;78.40
16958;DHT22;8595;52.542;11.974;2023-03-01T14:25:16;15.90;77.30
16958;DHT22;8595;52.542;11.974;2023-03-01T14:27:51;15.50;80.20
16958;DHT22;8595;52.542;11.974;2023-03-01T14:30:23;15.10;80.10
16958;DHT22;8595;52.542;11.974;2023-03-01T14:32:56;15.00;78.40
16958;DHT22;8595;52.542;11.974;2023-03-01T14:35:25;14.10;77.80
16958;DHT22;8595;52.542;11.974;2023-03-01T14:37:52;13.70;79.30
16958;DHT22;8595;52.542;11.974;2023-03-01T14:40:23;14.30;80.80
16958;DHT22;8595;52.542;11.974;2023-03-01T14:42:51;14.90;80.10
16958;DHT22;8595;52.542;11.974;2023-03-01T14:45:21;14.90;77.80
16958;DHT22;8595;52.542;11.974;2023-03-01T14:47:48;14.90;80.00
16958;DHT22;8595;52.542;11.974;2023-03-01T14:50:22;15.30;77.40
16958;DHT22;8595;52.542;11.974;2023-03-01T14:52:54;14.70;78.50
16958;DHT22;8595;52.542;11.974;2023-03-01T14:55:27;14.00;82.90
16958;DHT22;8595;52.542;11.974;2023-03-01T14:57:57;13.20;80.50
16958;DHT22;8595;52.542;11.974;2023-03-01T15:00:27;13.50;85.20
16958;DHT22;8595;52.542;11.974;2023-03-01T15:02:56;13.30;80.70
16958;DHT22;8595;52.542;11.974;2023-03-01T15:05:32;13.00;82.10
16958;DHT22;8595;52.542;11.974;2023-03-01T15:08:02;12.60;81.70
16958;DHT22;8595;52.542;11.974;2023-03-01T15:10:32;12.70;82.50
16958;DHT22;8595;52.542;11.974;2023-03-01T15:13:10;13.10;84.10
16958;DHT22;8595;52.542;11.974;2023-03-01T15:15:41;13.50;81.70
16958;DHT22;8595;52.542;11.974;2023-03-01T15:18:16;13.80;84.40
16958;DHT22;8595;52.542;11.974;2023-03-01T15:20:45;13.50;81.80
16958;DHT22;8595;52.542;11.974;2023-03-01T15:23:22;13.00;81.20
16958;DHT22;8595;52.542;11.974;2023-03-01T15:25:49;12.50;83.30
16958;DHT22;8595;52.542;11.974;2023-03-01T15:28:23;12.40;83.70
16958;DHT22;8595;52.542;11.974;2023-03-01T15:30:55;12.60;83.00
16958;DHT22;8595;52.542;11.974;2023-03-01T15:33:33;12.80;82.10
16958;DHT22;8595;52.542;11.974;2023-03-01T15:36:02;13.30;85.60
16958;DHT22;8595;52.542;11.974;2023-03-01T15:38:32;13.80;83.50
16958;DHT22;8595;52.542;11.974;2023-03-01T15:41:01;14.00;83.30
16958;DHT22;8595;52.542;11.974;2023-03-01T15:43:43;14.10;80.00
16958;DHT22;8595;52.542;11.974;2023-03-01T15:46:18;14.10;78.90
16958;DHT22;8595;52.542;11.974;2023-03-01T15:48:46;13.80;82.60
16958;DHT22;8595;52.542;11.974;2023-03-01T15:51:16;13.40;82.40
16958;DHT22;8595;52.542;11.974;2023-03-01T15:53:50;13.00;82.00
16958;DHT22;8595;52.542;11.974;2023-03-01T15:56:17;12.40;81.80
16958;DHT22;8595;52.542;11.974;2023-03-01T15:58:44;11.80;80.60
16958;DHT22;8595;52.542;11.974;2023-03-01T16:01:15;11.30;83.60
16958;DHT22;8595;52.542;11.974;2023-03-01T16:03:43;11.00;85.80
16958;DHT22;8595;52.542;11.974;2023-03-01T16:06:10;10.70;86.00
16958;DHT22;8595;52.542;11.974;2023-03-01T16:08:46;10.40;86.60
16958;DHT22;8595;52.542;11.974;2023-03-01T16:11:18;10.10;88.50